Terminal Aerodrome Forecast
Issued by NWS

Home | Current Version | Previous Version | Graphics & Text | Print | Product List | Glossary On
Versions: 1 2 3 4 5 6 7 8 9 10 11 12
477
FTUS42 KMHX 141753
TAFOAJ
TAF
KOAJ 141753Z 1418/1518 27008KT P6SM SKC
     FM142200 VRB03KT P6SM SCT250
      AMD LTD TO CLD VIS AND WIND=

USA.gov is the U.S. government's official web portal to all federal, state and local government web resources and services.